This is the latest recevied weather packets stored in our database for station/object N3WXO-1. If no packets are shown the sender has not sent any weather packets the latest 10 day(s).
| Time | Temp. | Humidity | Pressure | Rain* | Wind** | Luminosity | Snow |
|---|---|---|---|---|---|---|---|
| 1777852837 | 13.89° C | 42% | 1011.9 hPa | 0 mm | - | 0 W/m² | - |
| 1777852533 | 13.89° C | 42% | 1011.8 hPa | 0 mm | - | 0 W/m² | - |
| 1777852229 | 13.89° C | 40% | 1011.8 hPa | 0 mm | - | 0 W/m² | - |
| 1777851925 | 14.44° C | 40% | 1011.8 hPa | 0 mm | - | 5 W/m² | - |
| 1777851626 | 14.44° C | 39% | 1011.7 hPa | 0 mm | - | 7 W/m² | - |
| 1777851323 | 14.44° C | 38% | 1011.6 hPa | 0 mm | - | 9 W/m² | - |
| 1777851019 | 14.44° C | 39% | 1011.6 hPa | 0 mm | - | 11 W/m² | - |
| 1777850735 | 14.44° C | 39% | 1011.4 hPa | 0 mm | - | 9 W/m² | - |
| 1777850433 | 14.44° C | 38% | 1011.4 hPa | 0 mm | - | 14 W/m² | - |
| 1777850128 | 15° C | 41% | 1011.3 hPa | 0 mm | - | 18 W/m² | - |
| 1777849824 | 15° C | 40% | 1011.4 hPa | 0 mm | - | 19 W/m² | - |
| 1777849525 | 15° C | 38% | 1011.4 hPa | 0 mm | - | 21 W/m² | - |
| 1777849221 | 15° C | 37% | 1011.3 hPa | 0 mm | - | 28 W/m² | - |
| 1777848917 | 15° C | 37% | 1011.3 hPa | 0 mm | - | 35 W/m² | - |
| 1777848634 | 15.56° C | 38% | 1011.3 hPa | 0 mm | - | 33 W/m² | - |
| 1777848331 | 15.56° C | 38% | 1011.4 hPa | 0 mm | - | 46 W/m² | - |
| 1777848028 | 15.56° C | 39% | 1011.4 hPa | 0 mm | - | 79 W/m² | - |
| 1777847723 | 15.56° C | 38% | 1011.3 hPa | 0 mm | - | 83 W/m² | - |
| 1777847424 | 16.11° C | 39% | 1011.3 hPa | 0 mm | - | 32 W/m² | - |
| 1777847120 | 16.11° C | 36% | 1011.4 hPa | 0 mm | - | 72 W/m² | - |
| 1777846835 | 16.11° C | 39% | 1011.4 hPa | 0 mm | - | 123 W/m² | - |
| 1777846532 | 15.56° C | 37% | 1011.3 hPa | 0 mm | - | 148 W/m² | - |
| 1777846228 | 15° C | 42% | 1011.4 hPa | 0 mm | - | 200 W/m² | - |
| 1777845922 | 15° C | 37% | 1011.5 hPa | 0 mm | - | 53 W/m² | - |
| 1777845617 | 15.56° C | 37% | 1011.4 hPa | 0 mm | - | 39 W/m² | - |
* Rain latest hour (hover to see other rain measurements)
** Current wind speed in m/s (hover to see current wind gust speed)